Portada
METAR-TAF:

METAR-TAF

Aeroports :

Tabora, Tanzània

latitud: 05-05S, longitud: 032-50E, altitud: 1181 m

Observació

L'informe es va fer fa 19 minuts, a les 14:00 UTC
Vent calma
Temperatura 30°C
Humitat 46%
Pressió 1013 hPa
Visibilitat 10 km o més
Núvols disperses a una alçada de 2500 ft

METAR: HTTB 301400Z 00000KT 9999 SCT025 30/17 Q1013 NOSIG

Hora: 17:19 (14:19 UTC)

Pronòstic

L'informe es va fer fa 3 hores i 19 minuts, a les 11:00 UTC
Pronòstic vàlid del 30 a les 12 UTC al 31 a les 12 UTC
Vent kt del Nord
Visibilitat 10 km o més
Núvols disperses a una alçada de 1800 ft
Escasses núvols a una alçada de 1900 ft, Cumulonimbus.
Cel ennuvolat a una alçada de 7000 ft

TAF: HTTB 301100Z 3012/3112 00000KT 9999 SCT018 FEW019CB BKN070

Observacions i pronòstics meteorològics de més de 4000 aeroports (METAR i TAF).

Les estacions disponibles són els punts grocs i vermells al mapa.

Posi el ratolí al punt desitjat per veure el nom de l'estació.

Feu clic per veure les observacions i els pronòstics meteorològics.

Per canviar el mapa: feu clic els botons verds amb una creu de color negre per apropar; al botó verd amb un guió per allunyar la imatge; o en les fletxes verdes per a mapes adjacents.


METAR-TAF: